createdAt,value
2018-02-18T00:02:03.850Z,1.00
2018-02-18T00:04:31.352Z,1.10
2018-02-18T00:06:58.853Z,0.90
2018-02-18T00:09:26.407Z,0.90
2018-02-18T00:11:53.940Z,0.80
2018-02-18T00:14:23.914Z,0.90
2018-02-18T00:16:51.406Z,0.80
2018-02-18T00:19:18.900Z,0.80
2018-02-18T00:21:46.688Z,0.80
2018-02-18T00:24:14.188Z,0.80
2018-02-18T00:26:41.692Z,0.80
2018-02-18T00:29:09.196Z,0.80
2018-02-18T00:31:36.704Z,0.70
2018-02-18T00:34:04.197Z,0.70
2018-02-18T00:36:32.104Z,0.70
2018-02-18T00:38:59.594Z,0.50
2018-02-18T00:41:27.097Z,0.50
2018-02-18T00:43:54.959Z,0.50
2018-02-18T00:46:23.222Z,0.50
2018-02-18T00:48:51.520Z,0.60
2018-02-18T00:51:20.236Z,0.60
2018-02-18T00:53:47.735Z,0.60
2018-02-18T00:56:15.217Z,0.60
2018-02-18T00:58:43.070Z,0.50
2018-02-18T01:01:10.595Z,0.50
2018-02-18T01:03:38.065Z,0.50
2018-02-18T01:06:05.572Z,0.50
2018-02-18T01:08:33.039Z,0.40
2018-02-18T01:11:00.508Z,0.40
2018-02-18T01:13:28.452Z,0.40
2018-02-18T01:15:55.924Z,0.40
2018-02-18T01:18:23.416Z,0.40
2018-02-18T01:20:50.935Z,0.30
2018-02-18T01:23:18.416Z,0.30
2018-02-18T01:25:48.408Z,0.30
2018-02-18T01:28:16.240Z,0.30
2018-02-18T01:30:43.716Z,0.30
2018-02-18T01:33:11.266Z,0.30
2018-02-18T01:35:39.876Z,0.30
2018-02-18T01:38:07.388Z,0.30
2018-02-18T01:40:34.877Z,0.20
2018-02-18T01:43:02.739Z,0.20
2018-02-18T01:45:30.998Z,0.10
2018-02-18T01:47:59.287Z,0.10
2018-02-18T01:50:36.916Z,0.10
2018-02-18T01:53:04.401Z,0.10
2018-02-18T01:55:31.864Z,0.00
2018-02-18T01:57:59.772Z,0.10
2018-02-18T02:00:27.313Z,0.00
2018-02-18T02:02:54.857Z,0.10
2018-02-18T02:05:22.340Z,0.00
2018-02-18T02:07:49.861Z,0.10
2018-02-18T02:10:17.412Z,0.00
2018-02-18T02:12:45.328Z,-0.10
2018-02-18T02:15:13.569Z,0.00
2018-02-18T02:17:41.088Z,0.00
2018-02-18T02:20:08.965Z,0.00
2018-02-18T02:22:36.483Z,0.10
2018-02-18T02:25:03.996Z,0.00
2018-02-18T02:27:31.815Z,-0.10
2018-02-18T02:29:59.324Z,-0.10
2018-02-18T02:32:26.818Z,-0.20
2018-02-18T02:34:55.368Z,-0.10
2018-02-18T02:37:22.872Z,-0.20
2018-02-18T02:39:50.380Z,-0.20
2018-02-18T02:42:18.289Z,-0.30
2018-02-18T02:44:45.814Z,-0.20
2018-02-18T02:47:13.300Z,-0.20
2018-02-18T02:49:41.648Z,-0.20
2018-02-18T02:52:09.140Z,-0.20
2018-02-18T02:54:36.636Z,-0.30
2018-02-18T02:57:04.430Z,-0.30
2018-02-18T02:59:31.937Z,-0.30
2018-02-18T03:01:59.432Z,-0.30
2018-02-18T03:04:27.268Z,-0.30
2018-02-18T03:06:54.810Z,-0.20
2018-02-18T03:09:22.317Z,-0.20
2018-02-18T03:11:50.216Z,-0.30
2018-02-18T03:14:18.469Z,-0.30
2018-02-18T03:16:45.956Z,-0.30
2018-02-18T03:19:13.784Z,-0.50
2018-02-18T03:21:41.268Z,-0.50
2018-02-18T03:24:09.533Z,-0.40
2018-02-18T03:26:37.412Z,-0.40
2018-02-18T03:29:04.921Z,-0.40
2018-02-18T03:31:32.422Z,-0.40
2018-02-18T03:34:01.013Z,-0.40
2018-02-18T03:36:29.291Z,-0.50
2018-02-18T03:38:56.800Z,-0.50
2018-02-18T03:41:24.649Z,-0.50
2018-02-18T03:43:52.163Z,-0.40
2018-02-18T03:46:19.667Z,-0.60
2018-02-18T03:48:47.204Z,-0.50
2018-02-18T03:51:14.688Z,-0.50
2018-02-18T03:53:42.183Z,-0.60
2018-02-18T03:56:09.678Z,-0.50
2018-02-18T03:58:37.237Z,-0.50
2018-02-18T04:01:04.728Z,-0.50
2018-02-18T04:03:32.507Z,-0.50
2018-02-18T04:05:59.995Z,-0.60
2018-02-18T04:08:28.271Z,-0.70
2018-02-18T04:10:56.886Z,-0.70
2018-02-18T04:13:24.402Z,-0.70
2018-02-18T04:15:52.032Z,-0.70
2018-02-18T04:18:20.055Z,-0.70
2018-02-18T04:20:48.505Z,-0.90
2018-02-18T04:23:16.784Z,-0.90
2018-02-18T04:25:44.672Z,-0.90
2018-02-18T04:28:12.948Z,-0.90
2018-02-18T04:30:41.224Z,-0.90
2018-02-18T04:33:09.804Z,-0.90
2018-02-18T04:35:38.072Z,-0.90
2018-02-18T04:38:06.345Z,-0.90
2018-02-18T04:40:33.840Z,-0.90
2018-02-18T04:43:01.336Z,-0.90
2018-02-18T04:45:28.841Z,-0.90
2018-02-18T04:47:56.807Z,-1.00
2018-02-18T04:50:24.321Z,-1.00
2018-02-18T04:52:51.828Z,-1.00
2018-02-18T04:55:19.688Z,-0.90
2018-02-18T04:57:48.046Z,-0.90
2018-02-18T05:00:15.541Z,-1.00
2018-02-18T05:02:43.345Z,-1.00
2018-02-18T05:05:10.831Z,-0.90
2018-02-18T05:07:38.407Z,-1.00
2018-02-18T05:10:06.904Z,-1.00
2018-02-18T05:12:34.437Z,-1.00
2018-02-18T05:15:01.921Z,-1.10
2018-02-18T05:17:29.427Z,-1.10
2018-02-18T05:19:56.976Z,-1.10
2018-02-18T05:22:24.463Z,-1.10
2018-02-18T05:24:52.737Z,-1.20
2018-02-18T05:27:20.995Z,-1.20
2018-02-18T05:29:48.483Z,-1.20
2018-02-18T05:32:17.044Z,-1.20
2018-02-18T05:34:44.544Z,-1.20
2018-02-18T05:37:12.048Z,-1.20
2018-02-18T05:39:39.838Z,-1.20
2018-02-18T05:42:08.146Z,-1.20
2018-02-18T05:44:35.628Z,-1.20
2018-02-18T05:47:04.008Z,-1.20
2018-02-18T05:49:31.504Z,-1.20
2018-02-18T05:51:58.986Z,-1.30
2018-02-18T05:54:26.576Z,-1.20
2018-02-18T05:56:54.048Z,-1.30
2018-02-18T05:59:22.351Z,-1.30
2018-02-18T06:01:50.215Z,-1.30
2018-02-18T06:04:19.291Z,-1.30
2018-02-18T06:06:46.799Z,-1.30
2018-02-18T06:09:14.654Z,-1.40
2018-02-18T06:11:42.906Z,-1.20
2018-02-18T06:14:10.410Z,-1.30
2018-02-18T06:16:37.912Z,-1.30
2018-02-18T06:19:05.417Z,-1.40
2018-02-18T06:21:32.915Z,-1.40
2018-02-18T06:24:00.727Z,-1.40
2018-02-18T06:26:29.007Z,-1.50
2018-02-18T06:28:56.511Z,-1.50
2018-02-18T06:31:24.315Z,-1.40
2018-02-18T06:33:52.594Z,-1.40
2018-02-18T06:36:20.829Z,-1.50
2018-02-18T06:38:48.656Z,-1.50
2018-02-18T06:41:16.151Z,-1.50
2018-02-18T06:43:43.670Z,-1.50
2018-02-18T06:46:11.167Z,-1.50
2018-02-18T06:48:38.656Z,-1.50
2018-02-18T06:51:06.923Z,-1.60
2018-02-18T06:53:34.823Z,-1.60
2018-02-18T06:56:02.319Z,-1.60
2018-02-18T06:58:29.793Z,-1.60
2018-02-18T07:00:57.542Z,-1.60
2018-02-18T07:03:25.020Z,-1.60
2018-02-18T07:05:52.546Z,-1.50
2018-02-18T07:08:20.123Z,-1.50
2018-02-18T07:10:47.640Z,-1.50
2018-02-18T07:13:15.138Z,-1.60
2018-02-18T07:15:42.645Z,-1.60
2018-02-18T07:18:10.911Z,-1.50
2018-02-18T07:20:39.162Z,-1.50
2018-02-18T07:23:06.669Z,-1.40
2018-02-18T07:25:34.235Z,-1.40
2018-02-18T07:28:01.756Z,-1.40
2018-02-18T07:30:29.263Z,-1.30
2018-02-18T07:32:57.451Z,-1.20
2018-02-18T07:35:24.971Z,-1.20
2018-02-18T07:37:52.823Z,-1.20
2018-02-18T07:40:20.325Z,-1.10
2018-02-18T07:42:47.810Z,-1.10
2018-02-18T07:45:15.333Z,-1.10
2018-02-18T07:47:42.839Z,-0.80
2018-02-18T07:52:45.499Z,-0.10
2018-02-18T07:55:13.034Z,0.40
2018-02-18T07:57:40.558Z,0.50
2018-02-18T08:00:08.398Z,1.40
2018-02-18T08:02:35.881Z,1.70
2018-02-18T08:05:03.372Z,1.70
2018-02-18T08:07:32.032Z,1.30
2018-02-18T08:10:00.319Z,1.50
2018-02-18T08:12:27.822Z,1.50
2018-02-18T08:14:55.329Z,1.60
2018-02-18T08:17:22.837Z,1.50
2018-02-18T08:19:50.355Z,1.60
2018-02-18T08:22:18.316Z,1.60
2018-02-18T08:24:50.911Z,1.70
2018-02-18T08:27:19.402Z,1.60
2018-02-18T08:32:47.824Z,2.00
2018-02-18T08:35:15.306Z,1.90
2018-02-18T08:37:42.795Z,2.10
2018-02-18T08:40:10.316Z,2.30
2018-02-18T08:42:37.802Z,2.70
2018-02-18T08:45:05.294Z,3.50
2018-02-18T08:47:33.049Z,4.30
2018-02-18T08:50:00.604Z,5.50
2018-02-18T08:52:28.137Z,5.80
2018-02-18T08:54:55.720Z,6.40
2018-02-18T08:57:23.208Z,6.60
2018-02-18T08:59:50.708Z,7.40
2018-02-18T09:02:18.473Z,6.20
2018-02-18T09:04:45.958Z,6.70
2018-02-18T09:07:13.484Z,7.10
2018-02-18T09:09:41.012Z,6.20
2018-02-18T09:12:09.311Z,5.20
2018-02-18T09:14:36.794Z,5.40
2018-02-18T09:17:04.689Z,5.30
2018-02-18T09:19:32.243Z,8.20
2018-02-18T09:21:59.727Z,8.20
2018-02-18T09:24:27.637Z,8.40
2018-02-18T09:26:55.219Z,7.40
2018-02-18T09:29:22.748Z,8.80
2018-02-18T09:31:51.360Z,9.10
2018-02-18T09:34:18.848Z,9.10
2018-02-18T09:36:46.330Z,8.30
2018-02-18T09:39:13.807Z,9.50
2018-02-18T09:41:42.210Z,8.50
2018-02-18T09:44:09.699Z,7.00
2018-02-18T09:46:37.784Z,7.90
2018-02-18T09:49:05.299Z,7.90
2018-02-18T09:51:32.788Z,7.50
2018-02-18T09:54:00.315Z,7.70
2018-02-18T09:56:27.836Z,8.80
2018-02-18T09:58:56.105Z,9.90
2018-02-18T10:01:23.812Z,9.90
2018-02-18T10:03:51.288Z,10.10
2018-02-18T10:06:18.827Z,9.40
2018-02-18T10:08:46.349Z,9.50
2018-02-18T10:11:14.687Z,10.50
2018-02-18T10:13:42.261Z,10.50
2018-02-18T10:16:10.198Z,8.00
2018-02-18T10:18:37.741Z,7.90
2018-02-18T10:21:05.311Z,7.80
2018-02-18T10:23:32.899Z,7.80
2018-02-18T10:26:00.504Z,8.50
2018-02-18T10:28:28.260Z,8.60
2018-02-18T10:30:55.804Z,8.60
2018-02-18T10:33:23.266Z,9.00
2018-02-18T10:35:51.520Z,8.30
2018-02-18T10:38:19.308Z,8.30
2018-02-18T10:40:46.781Z,8.60
2018-02-18T10:43:14.271Z,9.10
2018-02-18T10:45:42.080Z,9.50
2018-02-18T10:48:09.966Z,9.20
2018-02-18T10:50:37.449Z,8.50
2018-02-18T10:53:05.063Z,8.60
2018-02-18T10:55:32.618Z,9.70
2018-02-18T10:58:00.227Z,11.90
2018-02-18T11:00:27.723Z,10.00
2018-02-18T11:02:55.209Z,9.20
2018-02-18T11:05:23.440Z,9.20
2018-02-18T11:07:50.925Z,9.20
2018-02-18T11:10:18.439Z,8.50
2018-02-18T11:12:45.924Z,8.00
2018-02-18T11:15:13.453Z,7.80
2018-02-18T11:17:42.144Z,8.60
2018-02-18T11:20:09.663Z,8.80
2018-02-18T11:22:37.924Z,8.70
2018-02-18T11:25:05.432Z,8.70
2018-02-18T11:27:33.000Z,9.00
2018-02-18T11:30:00.820Z,8.60
2018-02-18T11:32:29.093Z,9.00
2018-02-18T11:34:57.368Z,9.00
2018-02-18T11:37:25.643Z,9.10
2018-02-18T11:39:53.911Z,9.10
2018-02-18T11:42:22.177Z,9.10
2018-02-18T11:44:49.954Z,9.10
2018-02-18T11:47:17.504Z,8.50
2018-02-18T11:49:45.032Z,8.80
2018-02-18T11:52:12.572Z,9.10
2018-02-18T11:54:40.061Z,8.90
2018-02-18T11:57:07.551Z,8.60
2018-02-18T11:59:35.821Z,9.60
2018-02-18T12:02:04.080Z,10.30
2018-02-18T12:04:31.568Z,10.30
2018-02-18T12:06:59.192Z,9.40
2018-02-18T12:09:26.705Z,8.90
2018-02-18T12:11:54.267Z,8.80
2018-02-18T12:14:21.761Z,8.60
2018-02-18T12:16:49.249Z,8.10
2018-02-18T12:19:16.821Z,8.40
2018-02-18T12:21:45.102Z,8.40
2018-02-18T12:24:12.616Z,8.40
2018-02-18T12:26:40.114Z,7.90
2018-02-18T12:29:07.604Z,7.80
2018-02-18T12:31:35.102Z,7.80
2018-02-18T12:34:02.588Z,8.00
2018-02-18T12:36:30.173Z,7.90
2018-02-18T12:38:57.643Z,8.50
2018-02-18T12:41:25.155Z,8.80
2018-02-18T12:43:53.425Z,8.30
2018-02-18T12:46:21.672Z,8.60
2018-02-18T12:48:49.154Z,8.60
2018-02-18T12:51:17.413Z,8.00
2018-02-18T12:53:44.893Z,8.00
2018-02-18T12:56:13.136Z,8.10
2018-02-18T12:58:40.664Z,8.10
2018-02-18T13:01:08.144Z,7.70
2018-02-18T13:03:35.858Z,8.40
2018-02-18T13:06:04.289Z,8.20
2018-02-18T13:08:32.630Z,8.10
2018-02-18T13:11:00.198Z,8.10
2018-02-18T13:13:27.702Z,7.90
2018-02-18T13:15:55.960Z,8.00
2018-02-18T13:18:23.430Z,7.90
2018-02-18T13:20:51.714Z,8.20
2018-02-18T13:23:19.231Z,8.20
2018-02-18T13:25:46.720Z,8.10
2018-02-18T13:28:14.510Z,8.40
2018-02-18T13:30:42.756Z,8.20
2018-02-18T13:33:10.244Z,8.20
2018-02-18T13:35:38.824Z,8.00
2018-02-18T13:38:07.094Z,8.00
2018-02-18T13:40:35.388Z,7.60
2018-02-18T13:43:03.323Z,7.60
2018-02-18T13:45:30.753Z,7.50
2018-02-18T13:47:58.287Z,7.70
2018-02-18T13:50:26.160Z,7.50
2018-02-18T13:52:53.645Z,7.50
2018-02-18T13:55:21.172Z,7.50
2018-02-18T13:57:49.028Z,7.60
2018-02-18T14:00:17.424Z,7.70
2018-02-18T14:02:44.907Z,7.60
2018-02-18T14:05:12.409Z,7.70
2018-02-18T14:07:40.028Z,7.80
2018-02-18T14:10:07.538Z,8.00
2018-02-18T14:12:35.376Z,7.90
2018-02-18T14:15:03.645Z,7.80
2018-02-18T14:17:31.154Z,7.70
2018-02-18T14:19:58.673Z,7.70
2018-02-18T14:22:26.936Z,7.50
2018-02-18T14:24:54.432Z,7.50
2018-02-18T14:27:22.186Z,7.70
2018-02-18T14:29:49.770Z,7.90
2018-02-18T14:32:17.276Z,7.90
2018-02-18T14:34:45.278Z,7.70
2018-02-18T14:37:12.774Z,7.60
2018-02-18T14:39:40.265Z,7.50
2018-02-18T14:42:19.573Z,7.60
2018-02-18T14:44:59.002Z,7.60
2018-02-18T14:47:38.578Z,7.70
2018-02-18T14:50:18.777Z,7.70
2018-02-18T14:52:58.157Z,7.70
2018-02-18T14:55:31.623Z,7.80
2018-02-18T14:57:59.135Z,7.70
2018-02-18T15:00:27.392Z,7.90
2018-02-18T15:02:54.880Z,7.90
2018-02-18T15:05:22.635Z,7.90
2018-02-18T15:07:50.142Z,8.00
2018-02-18T15:10:17.682Z,7.90
2018-02-18T15:12:45.171Z,7.90
2018-02-18T15:15:12.660Z,7.90
2018-02-18T15:17:40.927Z,7.80
2018-02-18T15:20:08.800Z,7.80
2018-02-18T15:22:37.446Z,7.90
2018-02-18T15:25:04.983Z,7.90
2018-02-18T15:27:32.513Z,7.80
2018-02-18T15:30:00.778Z,7.60
2018-02-18T15:32:29.060Z,7.50
2018-02-18T15:34:56.617Z,7.50
2018-02-18T15:37:25.089Z,7.40
2018-02-18T15:39:53.375Z,7.40
2018-02-18T15:42:21.274Z,7.40
2018-02-18T15:44:48.841Z,7.30
2018-02-18T15:47:16.433Z,7.30
2018-02-18T15:49:44.013Z,7.30
2018-02-18T15:52:11.525Z,7.30
2018-02-18T15:54:39.058Z,7.30
2018-02-18T15:57:07.461Z,7.20
2018-02-18T15:59:35.183Z,7.20
2018-02-18T16:02:03.476Z,7.10
2018-02-18T16:04:30.968Z,7.10
2018-02-18T16:06:58.484Z,7.10
2018-02-18T16:09:26.003Z,7.00
2018-02-18T16:11:53.505Z,7.00
2018-02-18T16:14:21.015Z,6.90
2018-02-18T16:16:48.593Z,7.00
2018-02-18T16:19:16.124Z,6.90
2018-02-18T16:21:43.652Z,6.80
2018-02-18T16:24:11.208Z,6.80
2018-02-18T16:26:38.960Z,6.80
2018-02-18T16:29:06.502Z,6.70
2018-02-18T16:31:34.004Z,6.70
2018-02-18T16:34:01.990Z,6.70
2018-02-18T16:36:29.483Z,6.60
2018-02-18T16:38:57.752Z,6.50
2018-02-18T16:41:25.645Z,6.50
2018-02-18T16:43:53.172Z,6.50
2018-02-18T16:46:20.646Z,6.40
2018-02-18T16:48:49.184Z,6.30
2018-02-18T16:51:16.698Z,6.30
2018-02-18T16:53:44.212Z,6.20
2018-02-18T16:56:12.052Z,6.20
2018-02-18T16:58:39.532Z,6.20
2018-02-18T17:01:07.191Z,6.10
2018-02-18T17:03:34.995Z,6.00
2018-02-18T17:06:03.255Z,5.90
2018-02-18T17:08:30.779Z,5.90
2018-02-18T17:10:58.306Z,5.80
2018-02-18T17:13:25.784Z,5.80
2018-02-18T17:15:53.256Z,5.70
2018-02-18T17:18:21.177Z,5.60
2018-02-18T17:20:49.450Z,5.60
2018-02-18T17:23:16.966Z,5.50
2018-02-18T17:25:44.511Z,5.50
2018-02-18T17:28:12.048Z,5.40
2018-02-18T17:30:39.533Z,5.40
2018-02-18T17:33:07.449Z,5.40
2018-02-18T17:35:34.913Z,5.20
2018-02-18T17:38:02.416Z,5.20
2018-02-18T17:40:30.231Z,5.20
2018-02-18T17:42:57.753Z,5.20
2018-02-18T17:45:25.258Z,5.20
2018-02-18T17:47:52.750Z,5.20
2018-02-18T17:50:20.235Z,5.00
2018-02-18T17:52:47.712Z,4.90
2018-02-18T17:55:15.988Z,4.70
2018-02-18T17:57:43.542Z,4.70
2018-02-18T18:00:11.024Z,4.70
2018-02-18T18:02:38.908Z,4.60
2018-02-18T18:05:06.408Z,4.60
2018-02-18T18:07:33.900Z,4.50
2018-02-18T18:10:02.686Z,4.40
2018-02-18T18:12:30.212Z,4.40
2018-02-18T18:14:57.731Z,3.40
2018-02-18T18:17:25.572Z,4.40
2018-02-18T18:19:53.058Z,4.30
2018-02-18T18:22:20.566Z,4.30
2018-02-18T18:24:49.240Z,4.20
2018-02-18T18:27:16.736Z,4.20
2018-02-18T18:29:44.206Z,4.10
2018-02-18T18:32:11.720Z,4.10
2018-02-18T18:34:39.975Z,4.00
2018-02-18T18:37:07.540Z,4.00
2018-02-18T18:39:35.516Z,3.90
2018-02-18T18:42:02.976Z,3.90
2018-02-18T18:44:31.248Z,3.90
2018-02-18T18:46:58.741Z,3.80
2018-02-18T18:49:26.221Z,3.80
2018-02-18T18:51:53.705Z,3.90
2018-02-18T18:54:21.188Z,3.80
2018-02-18T18:56:49.454Z,3.70
2018-02-18T18:59:17.065Z,3.70
2018-02-18T19:01:44.735Z,3.70
2018-02-18T19:04:12.228Z,3.70
2018-02-18T19:06:39.699Z,3.70
2018-02-18T19:09:08.495Z,3.60
2018-02-18T19:11:36.749Z,3.70
2018-02-18T19:14:04.263Z,3.60
2018-02-18T19:16:32.080Z,3.60
2018-02-18T19:18:59.584Z,3.60
2018-02-18T19:21:27.151Z,3.60
2018-02-18T19:23:54.649Z,3.60
2018-02-18T19:26:22.227Z,3.50
2018-02-18T19:28:50.513Z,3.50
2018-02-18T19:31:18.351Z,3.50
2018-02-18T19:33:46.608Z,3.40
2018-02-18T19:36:14.856Z,3.40
2018-02-18T19:38:42.370Z,3.40
2018-02-18T19:41:09.843Z,3.40
2018-02-18T19:43:37.350Z,3.40
2018-02-18T19:46:05.145Z,3.40
2018-02-18T19:48:33.415Z,3.30
2018-02-18T19:51:00.880Z,3.30
2018-02-18T19:53:29.297Z,3.30
2018-02-18T19:55:57.292Z,3.30
2018-02-18T19:58:24.814Z,3.30
2018-02-18T20:00:52.660Z,3.30
2018-02-18T20:03:20.939Z,3.20
2018-02-18T20:05:48.438Z,3.20
2018-02-18T20:08:16.257Z,3.20
2018-02-18T20:10:43.727Z,3.20
2018-02-18T20:13:11.316Z,3.10
2018-02-18T20:15:39.045Z,3.20
2018-02-18T20:18:06.534Z,3.10
2018-02-18T20:20:34.096Z,3.10
2018-02-18T20:23:02.150Z,3.10
2018-02-18T20:25:29.625Z,3.10
2018-02-18T20:27:57.120Z,3.10
2018-02-18T20:30:25.765Z,3.00
2018-02-18T20:32:53.232Z,3.00
2018-02-18T20:35:20.700Z,3.00
2018-02-18T20:37:48.236Z,3.00
2018-02-18T20:40:15.714Z,3.00
2018-02-18T20:42:43.193Z,3.10
2018-02-18T20:45:11.080Z,3.00
2018-02-18T20:47:39.346Z,2.90
2018-02-18T20:50:06.875Z,2.90
2018-02-18T20:52:34.389Z,2.80
2018-02-18T20:55:01.865Z,2.90
2018-02-18T20:57:29.352Z,2.80
2018-02-18T20:59:56.865Z,2.80
2018-02-18T21:02:24.360Z,2.80
2018-02-18T21:04:51.849Z,2.80
2018-02-18T21:07:19.630Z,2.80
2018-02-18T21:09:47.134Z,2.80
2018-02-18T21:12:14.620Z,2.80
2018-02-18T21:14:42.369Z,2.70
2018-02-18T21:17:09.904Z,2.80
2018-02-18T21:19:37.409Z,2.80
2018-02-18T21:22:04.920Z,2.80
2018-02-18T21:24:32.389Z,2.80
2018-02-18T21:26:59.892Z,2.80
2018-02-18T21:29:28.469Z,2.70
2018-02-18T21:31:56.740Z,2.70
2018-02-18T21:34:25.014Z,2.70
2018-02-18T21:36:53.401Z,2.60
2018-02-18T21:39:21.647Z,2.60
2018-02-18T21:41:49.211Z,2.60
2018-02-18T21:44:16.708Z,2.60
2018-02-18T21:46:44.202Z,2.60
2018-02-18T21:49:11.680Z,2.50
2018-02-18T21:51:39.471Z,2.50
2018-02-18T21:54:07.741Z,2.40
2018-02-18T21:56:35.243Z,2.40
2018-02-18T21:59:03.067Z,2.40
2018-02-18T22:01:31.330Z,2.30
2018-02-18T22:03:58.905Z,2.30
2018-02-18T22:06:27.489Z,2.30
2018-02-18T22:08:54.966Z,2.30
2018-02-18T22:11:22.432Z,2.20
2018-02-18T22:13:49.919Z,2.20
2018-02-18T22:16:17.402Z,2.20
2018-02-18T22:18:44.910Z,2.30
2018-02-18T22:21:12.763Z,2.30
2018-02-18T22:23:40.245Z,2.30
2018-02-18T22:26:07.791Z,2.20
2018-02-18T22:28:35.279Z,2.20
2018-02-18T22:31:02.756Z,2.20
2018-02-18T22:33:30.231Z,2.30
2018-02-18T22:35:58.494Z,2.30
2018-02-18T22:38:25.974Z,2.20
2018-02-18T22:40:53.476Z,2.20
2018-02-18T22:43:21.468Z,2.00
2018-02-18T22:45:49.095Z,2.10
2018-02-18T22:48:16.603Z,2.00
2018-02-18T22:50:44.523Z,2.10
2018-02-18T22:53:12.021Z,2.00
2018-02-18T22:55:39.500Z,2.00
2018-02-18T22:58:07.800Z,1.90
2018-02-18T23:00:35.286Z,1.90
2018-02-18T23:03:02.762Z,1.90
2018-02-18T23:05:35.973Z,2.00
2018-02-18T23:08:04.432Z,2.00
2018-02-18T23:10:31.919Z,2.00
2018-02-18T23:13:00.194Z,2.00
2018-02-18T23:15:28.468Z,2.00
2018-02-18T23:17:56.709Z,1.90
2018-02-18T23:20:24.533Z,1.90
2018-02-18T23:22:52.034Z,1.70
2018-02-18T23:25:19.507Z,1.70
2018-02-18T23:27:47.395Z,1.70
2018-02-18T23:30:15.411Z,1.60
2018-02-18T23:32:42.896Z,1.60
2018-02-18T23:35:10.398Z,1.70
2018-02-18T23:37:37.912Z,1.70
2018-02-18T23:40:05.428Z,1.70
2018-02-18T23:42:32.928Z,1.70
2018-02-18T23:45:00.423Z,1.60
2018-02-18T23:47:27.976Z,1.70
2018-02-18T23:49:55.878Z,1.70
2018-02-18T23:52:23.355Z,1.70
2018-02-18T23:54:50.829Z,1.70
2018-02-18T23:57:18.315Z,1.60
2018-02-18T23:59:46.568Z,1.60
